createdAt,value
2022-12-25T00:01:16.628Z,89.57
2022-12-25T00:06:19.111Z,140.45
2022-12-25T00:11:20.946Z,166.70
2022-12-25T00:16:24.533Z,132.63
2022-12-25T00:21:27.011Z,130.90
2022-12-25T00:26:29.759Z,128.87
2022-12-25T00:31:31.630Z,143.43
2022-12-25T00:36:39.487Z,125.00
2022-12-25T00:41:43.492Z,112.45
2022-12-25T00:46:45.491Z,128.98
2022-12-25T00:51:48.486Z,142.35
2022-12-25T00:56:50.352Z,138.80
2022-12-25T01:01:52.696Z,119.60
2022-12-25T01:06:54.689Z,121.57
2022-12-25T01:11:56.545Z,126.05
2022-12-25T01:16:58.627Z,129.85
2022-12-25T01:22:00.462Z,116.03
2022-12-25T01:27:02.332Z,127.82
2022-12-25T01:32:04.841Z,134.90
2022-12-25T01:37:06.735Z,103.80
2022-12-25T01:42:18.386Z,155.23
2022-12-25T01:47:20.207Z,118.45
2022-12-25T01:52:24.561Z,90.28
2022-12-25T01:57:28.583Z,111.40
2022-12-25T02:02:30.965Z,142.23
2022-12-25T02:07:34.740Z,144.73
2022-12-25T02:12:37.441Z,111.38
2022-12-25T02:17:51.255Z,127.18
2022-12-25T02:27:55.051Z,128.85
2022-12-25T02:32:59.205Z,106.25
2022-12-25T02:38:15.040Z,94.97
2022-12-25T02:43:24.805Z,104.72
2022-12-25T02:48:28.187Z,126.22
2022-12-25T02:53:30.565Z,109.80
2022-12-25T02:58:35.118Z,111.67
2022-12-25T03:03:40.205Z,107.75
2022-12-25T03:08:42.850Z,106.63
2022-12-25T03:13:46.623Z,108.75
2022-12-25T03:18:48.445Z,99.65
2022-12-25T03:23:53.142Z,84.82
2022-12-25T03:28:55.027Z,105.63
2022-12-25T03:34:15.601Z,111.88
2022-12-25T03:39:27.675Z,98.78
2022-12-25T03:44:41.184Z,99.10
2022-12-25T03:49:50.827Z,90.47
2022-12-25T03:54:56.291Z,104.97
2022-12-25T03:59:58.120Z,115.10
2022-12-25T04:04:59.972Z,113.00
2022-12-25T04:10:01.919Z,105.30
2022-12-25T04:15:04.201Z,97.28
2022-12-25T04:20:06.476Z,108.40
2022-12-25T04:25:08.543Z,111.50
2022-12-25T04:30:10.473Z,105.43
2022-12-25T04:35:12.305Z,118.10
2022-12-25T04:40:14.230Z,115.65
2022-12-25T04:45:16.570Z,109.15
2022-12-25T04:50:18.780Z,113.63
2022-12-25T04:55:20.731Z,111.63
2022-12-25T05:00:22.562Z,114.55
2022-12-25T05:05:24.517Z,121.72
2022-12-25T05:10:26.421Z,102.20
2022-12-25T05:15:28.516Z,116.00
2022-12-25T05:20:34.728Z,111.82
2022-12-25T05:25:40.060Z,119.43
2022-12-25T05:30:41.930Z,103.28
2022-12-25T05:35:43.757Z,112.25
2022-12-25T05:40:45.592Z,108.50
2022-12-25T05:45:47.435Z,99.40
2022-12-25T05:50:49.322Z,101.18
2022-12-25T05:55:51.203Z,94.60
2022-12-25T06:00:53.037Z,99.68
2022-12-25T06:05:55.190Z,105.57
2022-12-25T06:10:57.003Z,105.97
2022-12-25T06:15:58.947Z,108.10
2022-12-25T06:21:00.794Z,104.63
2022-12-25T06:26:07.078Z,113.97
2022-12-25T06:31:10.003Z,120.93
2022-12-25T06:36:22.456Z,111.07
2022-12-25T06:41:25.585Z,114.03
2022-12-25T06:46:28.471Z,101.72
2022-12-25T06:51:31.335Z,102.70
2022-12-25T06:56:33.889Z,112.20
2022-12-25T07:01:37.992Z,117.93
2022-12-25T07:06:39.863Z,119.40
2022-12-25T07:11:41.680Z,105.75
2022-12-25T07:16:43.561Z,112.40
2022-12-25T07:21:45.460Z,100.65
2022-12-25T07:26:47.602Z,99.88
2022-12-25T07:31:49.656Z,105.53
2022-12-25T07:36:51.713Z,100.88
2022-12-25T07:41:53.606Z,92.60
2022-12-25T07:46:55.485Z,99.47
2022-12-25T07:51:57.361Z,93.43
2022-12-25T07:56:59.214Z,99.03
2022-12-25T08:02:01.185Z,92.10
2022-12-25T08:07:03.182Z,101.22
2022-12-25T08:12:05.233Z,86.75
2022-12-25T08:17:07.189Z,92.38
2022-12-25T08:22:09.083Z,94.65
2022-12-25T08:27:10.923Z,87.70
2022-12-25T08:32:12.737Z,79.45
2022-12-25T08:37:14.636Z,83.55
2022-12-25T08:42:16.509Z,81.85
2022-12-25T08:47:18.451Z,78.03
2022-12-25T08:52:20.265Z,78.60
2022-12-25T08:57:22.167Z,65.90
2022-12-25T09:02:24.148Z,79.28
2022-12-25T09:07:26.310Z,78.63
2022-12-25T09:12:28.233Z,68.30
2022-12-25T09:17:30.385Z,65.43
2022-12-25T09:22:32.208Z,69.20
2022-12-25T09:27:34.077Z,62.78
2022-12-25T09:32:36.265Z,54.22
2022-12-25T09:37:38.118Z,59.15
2022-12-25T09:42:40.130Z,55.15
2022-12-25T09:47:44.296Z,52.47
2022-12-25T09:52:46.378Z,58.67
2022-12-25T09:57:50.528Z,56.65
2022-12-25T10:03:00.857Z,50.50
2022-12-25T10:08:18.593Z,49.70
2022-12-25T10:13:38.200Z,51.38
2022-12-25T10:18:42.864Z,40.13
2022-12-25T10:23:55.103Z,46.60
2022-12-25T10:29:11.977Z,46.97
2022-12-25T10:34:14.559Z,45.10
2022-12-25T10:39:17.901Z,32.80
2022-12-25T10:49:23.134Z,32.90
2022-12-25T10:59:27.940Z,29.75
2022-12-25T11:04:35.032Z,29.45
2022-12-25T11:09:37.196Z,35.90
2022-12-25T11:14:39.091Z,27.88
2022-12-25T11:19:51.174Z,30.30
2022-12-25T11:24:53.002Z,27.88
2022-12-25T11:29:59.503Z,23.33
2022-12-25T11:35:02.024Z,23.80
2022-12-25T11:40:04.546Z,20.67
2022-12-25T11:45:19.602Z,23.17
2022-12-25T11:50:35.088Z,21.83
2022-12-25T11:55:44.344Z,16.42
2022-12-25T12:00:47.420Z,24.65
2022-12-25T12:05:55.207Z,19.88
2022-12-25T12:11:03.053Z,18.83
2022-12-25T12:16:05.092Z,16.13
2022-12-25T12:21:06.991Z,20.85
2022-12-25T12:26:17.195Z,16.95
2022-12-25T12:31:19.170Z,19.40
2022-12-25T12:36:29.067Z,13.68
2022-12-25T12:41:43.092Z,15.65
2022-12-25T12:46:56.001Z,13.18
2022-12-25T12:52:20.791Z,17.33
2022-12-25T12:57:24.928Z,16.90
2022-12-25T13:02:52.246Z,13.25
2022-12-25T13:08:02.048Z,21.45
2022-12-25T13:13:12.659Z,13.05
2022-12-25T13:18:14.959Z,17.10
2022-12-25T13:23:29.094Z,14.23
2022-12-25T13:28:35.356Z,21.10
2022-12-25T13:33:37.447Z,17.35
2022-12-25T13:38:46.184Z,18.58
2022-12-25T13:43:48.663Z,17.65
2022-12-25T13:48:55.413Z,25.47
2022-12-25T13:54:04.445Z,20.17
2022-12-25T13:59:06.441Z,20.35
2022-12-25T14:04:13.536Z,17.10
2022-12-25T14:09:15.899Z,25.88
2022-12-25T14:14:22.078Z,26.70
2022-12-25T14:19:28.965Z,22.70
2022-12-25T14:24:31.622Z,25.45
2022-12-25T14:29:43.809Z,29.73
2022-12-25T14:34:47.370Z,36.58
2022-12-25T14:39:56.816Z,31.67
2022-12-25T14:45:06.562Z,40.20
2022-12-25T14:50:26.755Z,31.67
2022-12-25T14:55:29.722Z,34.38
2022-12-25T15:00:38.529Z,35.45
2022-12-25T15:05:40.383Z,32.33
2022-12-25T15:11:00.528Z,34.28
2022-12-25T15:16:14.160Z,38.08
2022-12-25T15:21:26.450Z,31.85
2022-12-25T15:26:30.069Z,36.28
2022-12-25T15:31:32.560Z,33.63
2022-12-25T15:36:34.530Z,33.80
2022-12-25T15:41:37.852Z,37.38
2022-12-25T15:51:42.205Z,37.80
2022-12-25T15:56:48.588Z,34.93
2022-12-25T16:01:52.274Z,34.40
2022-12-25T16:06:55.206Z,40.65
2022-12-25T16:11:57.076Z,40.28
2022-12-25T16:16:59.127Z,45.60
2022-12-25T16:22:00.960Z,42.58
2022-12-25T16:27:02.848Z,42.65
2022-12-25T16:32:04.973Z,42.65
2022-12-25T16:37:06.859Z,45.38
2022-12-25T16:42:08.859Z,44.25
2022-12-25T16:47:10.914Z,45.28
2022-12-25T16:52:12.991Z,43.03
2022-12-25T16:57:15.081Z,45.17
2022-12-25T17:02:17.998Z,44.72
2022-12-25T17:07:20.197Z,51.65
2022-12-25T17:12:22.442Z,44.25
2022-12-25T17:17:24.250Z,46.80
2022-12-25T17:22:26.257Z,48.20
2022-12-25T17:27:28.377Z,51.33
2022-12-25T17:32:30.501Z,52.25
2022-12-25T17:37:33.098Z,55.35
2022-12-25T17:42:35.076Z,52.93
2022-12-25T17:47:36.916Z,47.03
2022-12-25T17:52:38.716Z,49.80
2022-12-25T17:57:41.446Z,56.30
2022-12-25T18:02:43.477Z,59.38
2022-12-25T18:07:45.779Z,63.57
2022-12-25T18:12:47.616Z,46.88
2022-12-25T18:17:49.417Z,46.63
2022-12-25T18:22:51.228Z,49.92
2022-12-25T18:27:53.117Z,92.38
2022-12-25T18:32:55.183Z,54.40
2022-12-25T18:37:57.114Z,38.63
2022-12-25T18:43:03.148Z,155.05
2022-12-25T18:48:05.786Z,34.88
2022-12-25T18:53:07.797Z,38.20
2022-12-25T18:58:10.440Z,44.25
2022-12-25T19:03:12.296Z,84.50
2022-12-25T19:08:14.514Z,28.63
2022-12-25T19:13:16.341Z,30.90
2022-12-25T19:18:18.165Z,32.72
2022-12-25T19:23:20.068Z,38.15
2022-12-25T19:28:21.894Z,30.33
2022-12-25T19:33:23.767Z,31.98
2022-12-25T19:38:25.707Z,32.60
2022-12-25T19:43:27.515Z,32.92
2022-12-25T19:48:30.121Z,30.00
2022-12-25T19:53:32.038Z,35.47
2022-12-25T19:58:33.889Z,37.03
2022-12-25T20:03:38.830Z,52.58
2022-12-25T20:08:46.069Z,64.90
2022-12-25T20:13:48.201Z,47.57
2022-12-25T20:18:50.169Z,47.33
2022-12-25T20:23:52.486Z,44.28
2022-12-25T20:28:54.561Z,43.90
2022-12-25T20:33:57.697Z,29.65
2022-12-25T20:38:59.557Z,259.35
2022-12-25T20:44:01.423Z,125.28
2022-12-25T20:49:03.437Z,286.38
2022-12-25T20:54:06.502Z,326.70
2022-12-25T20:59:09.071Z,292.08
2022-12-25T21:04:16.032Z,185.07
2022-12-25T21:09:18.420Z,260.50
2022-12-25T21:14:20.274Z,272.48
2022-12-25T21:19:22.247Z,249.95
2022-12-25T21:24:25.282Z,57.50
2022-12-25T21:29:27.156Z,86.07
2022-12-25T21:34:29.407Z,160.00
2022-12-25T21:39:31.494Z,103.70
2022-12-25T21:44:33.365Z,279.85
2022-12-25T21:49:35.232Z,64.38
2022-12-25T21:54:37.161Z,120.22
2022-12-25T21:59:39.821Z,85.47
2022-12-25T22:04:41.748Z,78.18
2022-12-25T22:09:44.376Z,138.48
2022-12-25T22:14:51.195Z,76.95
2022-12-25T22:19:55.697Z,181.77
2022-12-25T22:24:58.777Z,119.63
2022-12-25T22:30:00.678Z,369.27
2022-12-25T22:35:02.728Z,94.47
2022-12-25T22:40:05.295Z,114.30
2022-12-25T22:45:07.401Z,170.97
2022-12-25T22:50:10.063Z,286.75
2022-12-25T22:55:12.020Z,356.70
2022-12-25T23:00:13.933Z,175.27
2022-12-25T23:05:15.837Z,380.77
2022-12-25T23:10:17.765Z,163.18
2022-12-25T23:15:19.678Z,303.85
2022-12-25T23:20:21.566Z,357.83
2022-12-25T23:25:23.506Z,303.42
2022-12-25T23:30:25.298Z,291.90
2022-12-25T23:35:27.120Z,229.75
2022-12-25T23:40:29.054Z,155.27
2022-12-25T23:45:30.873Z,176.00
2022-12-25T23:50:33.526Z,87.53
2022-12-25T23:55:35.429Z,171.27
